sensor_id;sensor_type;location;lat;lon;timestamp;P1;durP1;ratioP1;P2;durP2;ratioP2
3647;SDS011;1840;48.892;15.312;2023-04-25T00:01:42;4.47;;;2.60;;
3647;SDS011;1840;48.892;15.312;2023-04-25T00:04:10;4.67;;;2.53;;
3647;SDS011;1840;48.892;15.312;2023-04-25T00:06:39;7.00;;;2.77;;
3647;SDS011;1840;48.892;15.312;2023-04-25T00:09:08;4.70;;;2.60;;
3647;SDS011;1840;48.892;15.312;2023-04-25T00:11:37;3.93;;;2.60;;
3647;SDS011;1840;48.892;15.312;2023-04-25T00:14:05;4.00;;;2.40;;
3647;SDS011;1840;48.892;15.312;2023-04-25T00:16:33;4.83;;;2.50;;
3647;SDS011;1840;48.892;15.312;2023-04-25T00:19:02;3.10;;;2.30;;
3647;SDS011;1840;48.892;15.312;2023-04-25T00:21:30;7.43;;;2.63;;
3647;SDS011;1840;48.892;15.312;2023-04-25T00:23:59;6.03;;;3.00;;
3647;SDS011;1840;48.892;15.312;2023-04-25T00:26:28;3.50;;;2.43;;
3647;SDS011;1840;48.892;15.312;2023-04-25T00:28:56;4.20;;;2.40;;
3647;SDS011;1840;48.892;15.312;2023-04-25T00:31:24;5.23;;;3.27;;
3647;SDS011;1840;48.892;15.312;2023-04-25T00:33:53;3.47;;;2.40;;
3647;SDS011;1840;48.892;15.312;2023-04-25T00:36:21;5.60;;;2.50;;
3647;SDS011;1840;48.892;15.312;2023-04-25T00:38:49;5.10;;;2.80;;
3647;SDS011;1840;48.892;15.312;2023-04-25T00:41:17;6.43;;;2.87;;
3647;SDS011;1840;48.892;15.312;2023-04-25T00:43:48;4.70;;;3.00;;
3647;SDS011;1840;48.892;15.312;2023-04-25T00:46:17;5.83;;;2.50;;
3647;SDS011;1840;48.892;15.312;2023-04-25T00:48:45;5.60;;;2.73;;
3647;SDS011;1840;48.892;15.312;2023-04-25T00:51:13;4.03;;;2.90;;
3647;SDS011;1840;48.892;15.312;2023-04-25T00:53:45;5.20;;;2.80;;
3647;SDS011;1840;48.892;15.312;2023-04-25T00:56:16;5.77;;;3.00;;
3647;SDS011;1840;48.892;15.312;2023-04-25T00:58:45;4.30;;;2.87;;
3647;SDS011;1840;48.892;15.312;2023-04-25T01:01:14;3.17;;;2.37;;
3647;SDS011;1840;48.892;15.312;2023-04-25T01:03:43;7.00;;;3.10;;
3647;SDS011;1840;48.892;15.312;2023-04-25T01:06:16;6.13;;;3.07;;
3647;SDS011;1840;48.892;15.312;2023-04-25T01:08:45;3.40;;;2.30;;
3647;SDS011;1840;48.892;15.312;2023-04-25T01:11:13;6.20;;;2.97;;
3647;SDS011;1840;48.892;15.312;2023-04-25T01:13:41;9.10;;;2.77;;
3647;SDS011;1840;48.892;15.312;2023-04-25T01:16:09;5.67;;;2.97;;
3647;SDS011;1840;48.892;15.312;2023-04-25T01:18:39;5.83;;;3.07;;
3647;SDS011;1840;48.892;15.312;2023-04-25T01:21:10;4.27;;;2.63;;
3647;SDS011;1840;48.892;15.312;2023-04-25T01:23:40;3.50;;;2.73;;
3647;SDS011;1840;48.892;15.312;2023-04-25T01:26:09;4.30;;;2.90;;
3647;SDS011;1840;48.892;15.312;2023-04-25T01:28:38;5.00;;;3.47;;
3647;SDS011;1840;48.892;15.312;2023-04-25T01:31:07;3.67;;;2.83;;
3647;SDS011;1840;48.892;15.312;2023-04-25T01:33:36;3.83;;;2.80;;
3647;SDS011;1840;48.892;15.312;2023-04-25T01:36:05;4.40;;;2.50;;
3647;SDS011;1840;48.892;15.312;2023-04-25T01:38:35;7.00;;;3.67;;
3647;SDS011;1840;48.892;15.312;2023-04-25T01:41:03;5.90;;;3.03;;
3647;SDS011;1840;48.892;15.312;2023-04-25T01:43:32;6.30;;;3.27;;
3647;SDS011;1840;48.892;15.312;2023-04-25T01:46:00;5.70;;;2.67;;
3647;SDS011;1840;48.892;15.312;2023-04-25T01:48:28;5.47;;;3.40;;
3647;SDS011;1840;48.892;15.312;2023-04-25T01:50:56;4.23;;;3.10;;
3647;SDS011;1840;48.892;15.312;2023-04-25T01:53:25;4.90;;;2.97;;
3647;SDS011;1840;48.892;15.312;2023-04-25T01:55:54;5.93;;;3.00;;
3647;SDS011;1840;48.892;15.312;2023-04-25T01:58:22;5.30;;;3.40;;
3647;SDS011;1840;48.892;15.312;2023-04-25T02:00:51;5.30;;;3.60;;
3647;SDS011;1840;48.892;15.312;2023-04-25T02:03:18;5.90;;;3.50;;
3647;SDS011;1840;48.892;15.312;2023-04-25T02:05:47;9.83;;;4.20;;
3647;SDS011;1840;48.892;15.312;2023-04-25T02:08:16;4.97;;;3.30;;
3647;SDS011;1840;48.892;15.312;2023-04-25T02:10:44;5.50;;;3.63;;
3647;SDS011;1840;48.892;15.312;2023-04-25T02:13:14;4.97;;;3.70;;
3647;SDS011;1840;48.892;15.312;2023-04-25T02:15:42;6.00;;;3.10;;
3647;SDS011;1840;48.892;15.312;2023-04-25T02:18:10;4.70;;;3.40;;
3647;SDS011;1840;48.892;15.312;2023-04-25T02:20:38;6.90;;;3.90;;
3647;SDS011;1840;48.892;15.312;2023-04-25T02:23:07;6.40;;;4.07;;
3647;SDS011;1840;48.892;15.312;2023-04-25T02:25:35;6.97;;;3.63;;
3647;SDS011;1840;48.892;15.312;2023-04-25T02:28:03;13.83;;;4.70;;
3647;SDS011;1840;48.892;15.312;2023-04-25T02:30:32;11.90;;;4.43;;
3647;SDS011;1840;48.892;15.312;2023-04-25T02:33:01;6.63;;;4.17;;
3647;SDS011;1840;48.892;15.312;2023-04-25T02:35:29;5.60;;;3.20;;
3647;SDS011;1840;48.892;15.312;2023-04-25T02:37:57;4.73;;;3.57;;
3647;SDS011;1840;48.892;15.312;2023-04-25T02:40:25;6.57;;;3.57;;
3647;SDS011;1840;48.892;15.312;2023-04-25T02:42:53;6.90;;;4.00;;
3647;SDS011;1840;48.892;15.312;2023-04-25T02:45:21;6.17;;;3.70;;
3647;SDS011;1840;48.892;15.312;2023-04-25T02:47:50;6.23;;;3.50;;
3647;SDS011;1840;48.892;15.312;2023-04-25T02:50:18;5.50;;;3.93;;
3647;SDS011;1840;48.892;15.312;2023-04-25T02:52:47;6.60;;;3.70;;
3647;SDS011;1840;48.892;15.312;2023-04-25T02:55:15;5.23;;;3.70;;
3647;SDS011;1840;48.892;15.312;2023-04-25T02:57:43;9.20;;;3.60;;
3647;SDS011;1840;48.892;15.312;2023-04-25T03:00:11;6.20;;;4.13;;
3647;SDS011;1840;48.892;15.312;2023-04-25T03:02:40;5.33;;;3.93;;
3647;SDS011;1840;48.892;15.312;2023-04-25T03:05:10;14.07;;;5.00;;
3647;SDS011;1840;48.892;15.312;2023-04-25T03:07:38;6.43;;;4.07;;
3647;SDS011;1840;48.892;15.312;2023-04-25T03:10:07;5.20;;;3.80;;
3647;SDS011;1840;48.892;15.312;2023-04-25T03:12:35;4.40;;;3.43;;
3647;SDS011;1840;48.892;15.312;2023-04-25T03:15:03;6.20;;;4.20;;
3647;SDS011;1840;48.892;15.312;2023-04-25T03:17:32;7.17;;;4.03;;
3647;SDS011;1840;48.892;15.312;2023-04-25T03:20:01;5.70;;;4.10;;
3647;SDS011;1840;48.892;15.312;2023-04-25T03:22:33;5.33;;;4.07;;
3647;SDS011;1840;48.892;15.312;2023-04-25T03:25:01;5.40;;;3.50;;
3647;SDS011;1840;48.892;15.312;2023-04-25T03:27:30;7.97;;;4.47;;
3647;SDS011;1840;48.892;15.312;2023-04-25T03:29:58;7.43;;;4.17;;
3647;SDS011;1840;48.892;15.312;2023-04-25T03:32:26;9.70;;;4.60;;
3647;SDS011;1840;48.892;15.312;2023-04-25T03:34:54;6.70;;;4.07;;
3647;SDS011;1840;48.892;15.312;2023-04-25T03:37:22;10.20;;;4.20;;
3647;SDS011;1840;48.892;15.312;2023-04-25T03:39:51;6.63;;;4.37;;
3647;SDS011;1840;48.892;15.312;2023-04-25T03:42:19;7.20;;;4.73;;
3647;SDS011;1840;48.892;15.312;2023-04-25T03:44:49;6.63;;;4.13;;
3647;SDS011;1840;48.892;15.312;2023-04-25T03:47:17;7.23;;;4.90;;
3647;SDS011;1840;48.892;15.312;2023-04-25T03:49:45;5.60;;;4.07;;
3647;SDS011;1840;48.892;15.312;2023-04-25T03:52:13;9.33;;;4.33;;
3647;SDS011;1840;48.892;15.312;2023-04-25T03:54:41;8.07;;;4.60;;
3647;SDS011;1840;48.892;15.312;2023-04-25T03:57:11;6.40;;;4.67;;
3647;SDS011;1840;48.892;15.312;2023-04-25T03:59:39;6.63;;;4.03;;
3647;SDS011;1840;48.892;15.312;2023-04-25T04:02:07;8.10;;;5.23;;
3647;SDS011;1840;48.892;15.312;2023-04-25T04:04:35;10.60;;;4.53;;
3647;SDS011;1840;48.892;15.312;2023-04-25T04:07:04;7.57;;;5.07;;
3647;SDS011;1840;48.892;15.312;2023-04-25T04:09:33;6.97;;;4.17;;
3647;SDS011;1840;48.892;15.312;2023-04-25T04:12:01;6.80;;;4.77;;
3647;SDS011;1840;48.892;15.312;2023-04-25T04:14:30;6.93;;;4.50;;
3647;SDS011;1840;48.892;15.312;2023-04-25T04:16:58;9.53;;;4.57;;
3647;SDS011;1840;48.892;15.312;2023-04-25T04:19:26;6.00;;;4.73;;
3647;SDS011;1840;48.892;15.312;2023-04-25T04:21:54;6.10;;;4.30;;
3647;SDS011;1840;48.892;15.312;2023-04-25T04:24:22;7.30;;;4.90;;
3647;SDS011;1840;48.892;15.312;2023-04-25T04:26:51;9.00;;;4.40;;
3647;SDS011;1840;48.892;15.312;2023-04-25T04:29:20;10.20;;;4.07;;
3647;SDS011;1840;48.892;15.312;2023-04-25T04:31:53;7.03;;;4.37;;
3647;SDS011;1840;48.892;15.312;2023-04-25T04:34:22;7.93;;;4.43;;
3647;SDS011;1840;48.892;15.312;2023-04-25T04:36:52;6.57;;;4.37;;
3647;SDS011;1840;48.892;15.312;2023-04-25T04:39:21;5.60;;;4.30;;
3647;SDS011;1840;48.892;15.312;2023-04-25T04:41:50;7.70;;;4.97;;
3647;SDS011;1840;48.892;15.312;2023-04-25T04:44:18;7.03;;;4.70;;
3647;SDS011;1840;48.892;15.312;2023-04-25T04:46:47;5.97;;;4.87;;
3647;SDS011;1840;48.892;15.312;2023-04-25T04:49:16;5.80;;;4.17;;
3647;SDS011;1840;48.892;15.312;2023-04-25T04:51:44;5.33;;;4.20;;
3647;SDS011;1840;48.892;15.312;2023-04-25T04:54:14;6.30;;;4.60;;
3647;SDS011;1840;48.892;15.312;2023-04-25T04:56:43;8.67;;;5.07;;
3647;SDS011;1840;48.892;15.312;2023-04-25T04:59:11;5.73;;;4.20;;
3647;SDS011;1840;48.892;15.312;2023-04-25T05:01:41;16.10;;;6.13;;
3647;SDS011;1840;48.892;15.312;2023-04-25T05:04:10;12.33;;;6.87;;
3647;SDS011;1840;48.892;15.312;2023-04-25T05:06:41;7.83;;;5.70;;
3647;SDS011;1840;48.892;15.312;2023-04-25T05:09:14;9.23;;;5.67;;
3647;SDS011;1840;48.892;15.312;2023-04-25T05:11:43;6.90;;;5.00;;
3647;SDS011;1840;48.892;15.312;2023-04-25T05:14:11;7.80;;;5.20;;
3647;SDS011;1840;48.892;15.312;2023-04-25T05:16:39;9.70;;;5.20;;
3647;SDS011;1840;48.892;15.312;2023-04-25T05:19:07;7.73;;;5.43;;
3647;SDS011;1840;48.892;15.312;2023-04-25T05:21:36;10.50;;;4.20;;
3647;SDS011;1840;48.892;15.312;2023-04-25T05:24:06;8.00;;;5.33;;
3647;SDS011;1840;48.892;15.312;2023-04-25T05:26:35;7.33;;;5.17;;
3647;SDS011;1840;48.892;15.312;2023-04-25T05:29:04;9.43;;;6.27;;
3647;SDS011;1840;48.892;15.312;2023-04-25T05:31:33;10.30;;;5.70;;
3647;SDS011;1840;48.892;15.312;2023-04-25T05:34:01;8.10;;;5.10;;
3647;SDS011;1840;48.892;15.312;2023-04-25T05:36:30;7.90;;;5.17;;
3647;SDS011;1840;48.892;15.312;2023-04-25T05:38:58;6.20;;;4.53;;
3647;SDS011;1840;48.892;15.312;2023-04-25T05:41:29;7.47;;;5.10;;
3647;SDS011;1840;48.892;15.312;2023-04-25T05:43:57;9.43;;;4.90;;
3647;SDS011;1840;48.892;15.312;2023-04-25T05:46:26;7.57;;;4.90;;
3647;SDS011;1840;48.892;15.312;2023-04-25T05:48:55;8.53;;;4.77;;
3647;SDS011;1840;48.892;15.312;2023-04-25T05:51:23;6.50;;;4.37;;
3647;SDS011;1840;48.892;15.312;2023-04-25T05:53:53;11.80;;;5.00;;
3647;SDS011;1840;48.892;15.312;2023-04-25T05:56:21;9.50;;;6.20;;
3647;SDS011;1840;48.892;15.312;2023-04-25T05:58:50;10.03;;;6.20;;
3647;SDS011;1840;48.892;15.312;2023-04-25T06:01:18;17.07;;;6.87;;
3647;SDS011;1840;48.892;15.312;2023-04-25T06:03:47;10.83;;;5.23;;
3647;SDS011;1840;48.892;15.312;2023-04-25T06:06:16;6.00;;;4.43;;
3647;SDS011;1840;48.892;15.312;2023-04-25T06:08:45;5.93;;;4.40;;
3647;SDS011;1840;48.892;15.312;2023-04-25T06:11:14;5.93;;;4.60;;
3647;SDS011;1840;48.892;15.312;2023-04-25T06:13:42;7.27;;;4.70;;
3647;SDS011;1840;48.892;15.312;2023-04-25T06:16:12;8.70;;;5.17;;
3647;SDS011;1840;48.892;15.312;2023-04-25T06:18:41;6.20;;;4.63;;
3647;SDS011;1840;48.892;15.312;2023-04-25T06:21:09;16.30;;;5.17;;
3647;SDS011;1840;48.892;15.312;2023-04-25T06:23:37;6.60;;;3.97;;
3647;SDS011;1840;48.892;15.312;2023-04-25T06:26:05;5.70;;;3.27;;
3647;SDS011;1840;48.892;15.312;2023-04-25T06:28:33;6.37;;;3.47;;
3647;SDS011;1840;48.892;15.312;2023-04-25T06:31:01;8.03;;;3.60;;
3647;SDS011;1840;48.892;15.312;2023-04-25T06:33:31;9.43;;;3.53;;
3647;SDS011;1840;48.892;15.312;2023-04-25T06:35:59;6.63;;;3.60;;
3647;SDS011;1840;48.892;15.312;2023-04-25T06:38:28;9.10;;;3.77;;
3647;SDS011;1840;48.892;15.312;2023-04-25T06:40:56;4.97;;;3.40;;
3647;SDS011;1840;48.892;15.312;2023-04-25T06:43:24;6.53;;;3.97;;
3647;SDS011;1840;48.892;15.312;2023-04-25T06:45:52;5.97;;;4.10;;
3647;SDS011;1840;48.892;15.312;2023-04-25T06:48:20;8.40;;;3.67;;
3647;SDS011;1840;48.892;15.312;2023-04-25T06:50:49;8.43;;;3.40;;
3647;SDS011;1840;48.892;15.312;2023-04-25T06:53:17;7.83;;;4.07;;
3647;SDS011;1840;48.892;15.312;2023-04-25T06:55:45;5.80;;;3.50;;
3647;SDS011;1840;48.892;15.312;2023-04-25T06:58:14;5.27;;;3.83;;
3647;SDS011;1840;48.892;15.312;2023-04-25T07:00:42;6.00;;;3.40;;
3647;SDS011;1840;48.892;15.312;2023-04-25T07:03:10;4.50;;;3.00;;
3647;SDS011;1840;48.892;15.312;2023-04-25T07:05:39;5.37;;;3.33;;
3647;SDS011;1840;48.892;15.312;2023-04-25T07:08:08;5.50;;;3.17;;
3647;SDS011;1840;48.892;15.312;2023-04-25T07:10:36;5.70;;;3.23;;
3647;SDS011;1840;48.892;15.312;2023-04-25T07:13:05;4.50;;;3.00;;
3647;SDS011;1840;48.892;15.312;2023-04-25T07:15:33;5.77;;;3.33;;
3647;SDS011;1840;48.892;15.312;2023-04-25T07:18:01;5.10;;;3.13;;
3647;SDS011;1840;48.892;15.312;2023-04-25T07:20:29;5.10;;;3.17;;
3647;SDS011;1840;48.892;15.312;2023-04-25T07:22:58;7.43;;;3.23;;
3647;SDS011;1840;48.892;15.312;2023-04-25T07:25:27;5.27;;;3.10;;
3647;SDS011;1840;48.892;15.312;2023-04-25T07:27:55;7.93;;;3.60;;
3647;SDS011;1840;48.892;15.312;2023-04-25T07:30:23;9.43;;;3.50;;
3647;SDS011;1840;48.892;15.312;2023-04-25T07:32:51;10.57;;;3.07;;
3647;SDS011;1840;48.892;15.312;2023-04-25T07:35:19;6.20;;;3.23;;
3647;SDS011;1840;48.892;15.312;2023-04-25T07:37:48;5.10;;;2.60;;
3647;SDS011;1840;48.892;15.312;2023-04-25T07:40:16;6.10;;;3.73;;
3647;SDS011;1840;48.892;15.312;2023-04-25T07:42:45;6.63;;;2.73;;
3647;SDS011;1840;48.892;15.312;2023-04-25T07:45:14;4.50;;;2.87;;
3647;SDS011;1840;48.892;15.312;2023-04-25T07:47:42;5.53;;;3.47;;
3647;SDS011;1840;48.892;15.312;2023-04-25T07:50:11;5.10;;;3.40;;
3647;SDS011;1840;48.892;15.312;2023-04-25T07:52:39;3.83;;;2.60;;
3647;SDS011;1840;48.892;15.312;2023-04-25T07:55:07;6.80;;;3.60;;
3647;SDS011;1840;48.892;15.312;2023-04-25T07:57:36;5.27;;;3.33;;
3647;SDS011;1840;48.892;15.312;2023-04-25T08:00:06;6.23;;;3.17;;
3647;SDS011;1840;48.892;15.312;2023-04-25T08:02:37;5.37;;;3.40;;
3647;SDS011;1840;48.892;15.312;2023-04-25T08:05:05;5.67;;;3.43;;
3647;SDS011;1840;48.892;15.312;2023-04-25T08:07:34;5.80;;;3.17;;
3647;SDS011;1840;48.892;15.312;2023-04-25T08:10:02;4.93;;;2.90;;
3647;SDS011;1840;48.892;15.312;2023-04-25T08:12:31;6.93;;;3.00;;
3647;SDS011;1840;48.892;15.312;2023-04-25T08:14:59;5.13;;;3.43;;
3647;SDS011;1840;48.892;15.312;2023-04-25T08:17:28;5.27;;;3.00;;
3647;SDS011;1840;48.892;15.312;2023-04-25T08:19:56;8.50;;;3.97;;
3647;SDS011;1840;48.892;15.312;2023-04-25T08:22:25;6.17;;;3.47;;
3647;SDS011;1840;48.892;15.312;2023-04-25T08:24:52;5.53;;;3.17;;
3647;SDS011;1840;48.892;15.312;2023-04-25T08:27:20;6.90;;;3.23;;
3647;SDS011;1840;48.892;15.312;2023-04-25T08:29:50;7.60;;;3.10;;
3647;SDS011;1840;48.892;15.312;2023-04-25T08:32:19;4.43;;;2.77;;
3647;SDS011;1840;48.892;15.312;2023-04-25T08:34:50;3.63;;;2.40;;
3647;SDS011;1840;48.892;15.312;2023-04-25T08:37:20;8.27;;;2.77;;
3647;SDS011;1840;48.892;15.312;2023-04-25T08:39:49;7.07;;;3.30;;
3647;SDS011;1840;48.892;15.312;2023-04-25T08:42:18;5.23;;;2.93;;
3647;SDS011;1840;48.892;15.312;2023-04-25T08:44:49;3.60;;;2.00;;
3647;SDS011;1840;48.892;15.312;2023-04-25T08:47:18;4.70;;;2.40;;
3647;SDS011;1840;48.892;15.312;2023-04-25T08:49:51;4.70;;;2.37;;
3647;SDS011;1840;48.892;15.312;2023-04-25T08:52:21;4.67;;;2.40;;
3647;SDS011;1840;48.892;15.312;2023-04-25T08:54:50;5.63;;;2.70;;
3647;SDS011;1840;48.892;15.312;2023-04-25T08:57:19;4.50;;;2.47;;
3647;SDS011;1840;48.892;15.312;2023-04-25T08:59:49;10.00;;;2.43;;
3647;SDS011;1840;48.892;15.312;2023-04-25T09:02:21;4.17;;;2.10;;
3647;SDS011;1840;48.892;15.312;2023-04-25T09:04:53;5.67;;;2.10;;
3647;SDS011;1840;48.892;15.312;2023-04-25T09:07:22;4.13;;;2.03;;
3647;SDS011;1840;48.892;15.312;2023-04-25T09:09:52;7.73;;;2.63;;
3647;SDS011;1840;48.892;15.312;2023-04-25T09:12:21;4.30;;;2.27;;
3647;SDS011;1840;48.892;15.312;2023-04-25T09:17:34;6.27;;;2.60;;
3647;SDS011;1840;48.892;15.312;2023-04-25T09:20:09;6.27;;;2.17;;
3647;SDS011;1840;48.892;15.312;2023-04-25T09:22:39;3.90;;;2.37;;
3647;SDS011;1840;48.892;15.312;2023-04-25T09:25:09;3.77;;;1.90;;
3647;SDS011;1840;48.892;15.312;2023-04-25T09:27:49;5.77;;;2.17;;
3647;SDS011;1840;48.892;15.312;2023-04-25T09:30:18;3.10;;;2.00;;
3647;SDS011;1840;48.892;15.312;2023-04-25T09:32:56;3.83;;;1.93;;
3647;SDS011;1840;48.892;15.312;2023-04-25T09:35:27;4.97;;;2.10;;
3647;SDS011;1840;48.892;15.312;2023-04-25T09:37:58;3.80;;;1.70;;
3647;SDS011;1840;48.892;15.312;2023-04-25T09:40:26;3.57;;;1.90;;
3647;SDS011;1840;48.892;15.312;2023-04-25T09:42:58;3.60;;;2.50;;
3647;SDS011;1840;48.892;15.312;2023-04-25T09:45:29;4.20;;;2.10;;
3647;SDS011;1840;48.892;15.312;2023-04-25T09:47:59;5.00;;;2.60;;
3647;SDS011;1840;48.892;15.312;2023-04-25T09:50:33;4.57;;;2.20;;
3647;SDS011;1840;48.892;15.312;2023-04-25T09:53:03;4.77;;;2.53;;
3647;SDS011;1840;48.892;15.312;2023-04-25T09:55:32;5.20;;;2.70;;
3647;SDS011;1840;48.892;15.312;2023-04-25T09:58:04;4.17;;;2.60;;
3647;SDS011;1840;48.892;15.312;2023-04-25T10:00:34;5.20;;;2.27;;
3647;SDS011;1840;48.892;15.312;2023-04-25T10:03:03;3.70;;;2.30;;
3647;SDS011;1840;48.892;15.312;2023-04-25T10:05:35;4.23;;;2.50;;
3647;SDS011;1840;48.892;15.312;2023-04-25T10:08:05;5.47;;;2.70;;
3647;SDS011;1840;48.892;15.312;2023-04-25T10:10:35;3.97;;;2.40;;
3647;SDS011;1840;48.892;15.312;2023-04-25T10:13:07;6.70;;;2.70;;
3647;SDS011;1840;48.892;15.312;2023-04-25T10:15:37;3.60;;;2.00;;
3647;SDS011;1840;48.892;15.312;2023-04-25T10:18:08;5.90;;;2.37;;
3647;SDS011;1840;48.892;15.312;2023-04-25T10:20:38;3.30;;;1.87;;
3647;SDS011;1840;48.892;15.312;2023-04-25T10:23:07;3.57;;;1.90;;
3647;SDS011;1840;48.892;15.312;2023-04-25T10:25:41;3.77;;;2.13;;
3647;SDS011;1840;48.892;15.312;2023-04-25T10:28:11;4.83;;;2.33;;
3647;SDS011;1840;48.892;15.312;2023-04-25T10:30:44;4.47;;;2.20;;
3647;SDS011;1840;48.892;15.312;2023-04-25T10:33:34;3.27;;;1.93;;
3647;SDS011;1840;48.892;15.312;2023-04-25T10:36:11;7.27;;;2.10;;
3647;SDS011;1840;48.892;15.312;2023-04-25T10:38:40;9.07;;;1.97;;
3647;SDS011;1840;48.892;15.312;2023-04-25T10:41:11;5.90;;;2.10;;
3647;SDS011;1840;48.892;15.312;2023-04-25T10:43:40;5.13;;;2.10;;
3647;SDS011;1840;48.892;15.312;2023-04-25T10:46:15;4.70;;;2.07;;
3647;SDS011;1840;48.892;15.312;2023-04-25T10:48:46;5.57;;;2.40;;
3647;SDS011;1840;48.892;15.312;2023-04-25T10:51:18;4.43;;;2.17;;
3647;SDS011;1840;48.892;15.312;2023-04-25T10:53:56;3.90;;;2.00;;
3647;SDS011;1840;48.892;15.312;2023-04-25T10:56:26;5.27;;;2.20;;
3647;SDS011;1840;48.892;15.312;2023-04-25T10:59:04;4.97;;;1.90;;
3647;SDS011;1840;48.892;15.312;2023-04-25T11:01:38;4.17;;;2.23;;
3647;SDS011;1840;48.892;15.312;2023-04-25T11:04:18;3.20;;;1.83;;
3647;SDS011;1840;48.892;15.312;2023-04-25T11:06:58;3.20;;;1.73;;
3647;SDS011;1840;48.892;15.312;2023-04-25T11:09:34;5.00;;;1.90;;
3647;SDS011;1840;48.892;15.312;2023-04-25T11:12:03;2.73;;;1.50;;
3647;SDS011;1840;48.892;15.312;2023-04-25T11:14:35;4.97;;;1.70;;
3647;SDS011;1840;48.892;15.312;2023-04-25T11:17:07;5.23;;;1.70;;
3647;SDS011;1840;48.892;15.312;2023-04-25T11:19:37;3.47;;;1.67;;
3647;SDS011;1840;48.892;15.312;2023-04-25T11:22:10;3.03;;;1.47;;
3647;SDS011;1840;48.892;15.312;2023-04-25T11:24:43;5.57;;;1.73;;
3647;SDS011;1840;48.892;15.312;2023-04-25T11:27:22;4.97;;;1.23;;
3647;SDS011;1840;48.892;15.312;2023-04-25T11:29:54;6.03;;;2.00;;
3647;SDS011;1840;48.892;15.312;2023-04-25T11:35:21;3.03;;;1.40;;
3647;SDS011;1840;48.892;15.312;2023-04-25T11:37:53;2.27;;;1.27;;
3647;SDS011;1840;48.892;15.312;2023-04-25T11:40:21;2.27;;;1.13;;
3647;SDS011;1840;48.892;15.312;2023-04-25T11:42:49;7.30;;;1.80;;
3647;SDS011;1840;48.892;15.312;2023-04-25T11:45:20;3.73;;;1.57;;
3647;SDS011;1840;48.892;15.312;2023-04-25T11:47:50;3.87;;;1.50;;
3647;SDS011;1840;48.892;15.312;2023-04-25T11:50:19;4.87;;;1.60;;
3647;SDS011;1840;48.892;15.312;2023-04-25T11:52:47;2.73;;;1.80;;
3647;SDS011;1840;48.892;15.312;2023-04-25T11:55:18;3.70;;;1.73;;
3647;SDS011;1840;48.892;15.312;2023-04-25T11:57:48;3.73;;;1.50;;
3647;SDS011;1840;48.892;15.312;2023-04-25T12:00:17;3.10;;;1.53;;
3647;SDS011;1840;48.892;15.312;2023-04-25T12:02:48;2.70;;;1.50;;
3647;SDS011;1840;48.892;15.312;2023-04-25T12:05:19;3.03;;;1.80;;
3647;SDS011;1840;48.892;15.312;2023-04-25T12:07:53;2.33;;;1.30;;
3647;SDS011;1840;48.892;15.312;2023-04-25T12:10:24;3.83;;;1.97;;
3647;SDS011;1840;48.892;15.312;2023-04-25T12:12:53;3.43;;;1.63;;
3647;SDS011;1840;48.892;15.312;2023-04-25T12:15:23;2.70;;;1.37;;
3647;SDS011;1840;48.892;15.312;2023-04-25T12:17:54;3.70;;;1.83;;
3647;SDS011;1840;48.892;15.312;2023-04-25T12:20:24;8.40;;;1.87;;
3647;SDS011;1840;48.892;15.312;2023-04-25T12:22:53;3.40;;;2.10;;
3647;SDS011;1840;48.892;15.312;2023-04-25T12:25:35;2.60;;;1.50;;
3647;SDS011;1840;48.892;15.312;2023-04-25T12:28:14;3.57;;;1.90;;
3647;SDS011;1840;48.892;15.312;2023-04-25T12:30:53;2.93;;;1.50;;
3647;SDS011;1840;48.892;15.312;2023-04-25T12:33:26;3.40;;;1.70;;
3647;SDS011;1840;48.892;15.312;2023-04-25T12:35:55;3.13;;;1.77;;
3647;SDS011;1840;48.892;15.312;2023-04-25T12:38:24;3.60;;;1.50;;
3647;SDS011;1840;48.892;15.312;2023-04-25T12:40:54;2.70;;;1.60;;
3647;SDS011;1840;48.892;15.312;2023-04-25T12:43:22;3.53;;;1.90;;
3647;SDS011;1840;48.892;15.312;2023-04-25T12:45:51;3.13;;;1.70;;
3647;SDS011;1840;48.892;15.312;2023-04-25T12:48:20;4.40;;;1.90;;
3647;SDS011;1840;48.892;15.312;2023-04-25T12:50:49;3.60;;;1.70;;
3647;SDS011;1840;48.892;15.312;2023-04-25T12:53:19;3.90;;;1.80;;
3647;SDS011;1840;48.892;15.312;2023-04-25T12:55:48;5.73;;;1.90;;
3647;SDS011;1840;48.892;15.312;2023-04-25T12:58:18;4.10;;;1.90;;
3647;SDS011;1840;48.892;15.312;2023-04-25T13:00:46;6.33;;;3.23;;
3647;SDS011;1840;48.892;15.312;2023-04-25T13:03:15;8.90;;;2.47;;
3647;SDS011;1840;48.892;15.312;2023-04-25T13:05:44;4.33;;;2.20;;
3647;SDS011;1840;48.892;15.312;2023-04-25T13:08:14;6.37;;;1.90;;
3647;SDS011;1840;48.892;15.312;2023-04-25T13:10:42;7.00;;;3.27;;
3647;SDS011;1840;48.892;15.312;2023-04-25T13:13:10;5.53;;;3.30;;
3647;SDS011;1840;48.892;15.312;2023-04-25T13:15:40;2.73;;;1.60;;
3647;SDS011;1840;48.892;15.312;2023-04-25T13:18:08;3.40;;;2.10;;
3647;SDS011;1840;48.892;15.312;2023-04-25T13:20:37;5.93;;;2.37;;
3647;SDS011;1840;48.892;15.312;2023-04-25T13:23:05;4.10;;;2.30;;
3647;SDS011;1840;48.892;15.312;2023-04-25T13:25:33;3.80;;;2.60;;
3647;SDS011;1840;48.892;15.312;2023-04-25T13:28:01;3.13;;;2.13;;
3647;SDS011;1840;48.892;15.312;2023-04-25T13:30:29;3.60;;;2.40;;
3647;SDS011;1840;48.892;15.312;2023-04-25T13:32:59;3.93;;;2.03;;
3647;SDS011;1840;48.892;15.312;2023-04-25T13:35:30;4.30;;;2.80;;
3647;SDS011;1840;48.892;15.312;2023-04-25T13:37:58;6.40;;;2.70;;
3647;SDS011;1840;48.892;15.312;2023-04-25T13:40:26;4.83;;;3.07;;
3647;SDS011;1840;48.892;15.312;2023-04-25T13:42:54;9.37;;;4.10;;
3647;SDS011;1840;48.892;15.312;2023-04-25T13:45:26;3.27;;;2.17;;
3647;SDS011;1840;48.892;15.312;2023-04-25T13:48:00;5.20;;;2.93;;
3647;SDS011;1840;48.892;15.312;2023-04-25T13:50:29;5.20;;;3.53;;
3647;SDS011;1840;48.892;15.312;2023-04-25T13:52:58;6.43;;;3.10;;
3647;SDS011;1840;48.892;15.312;2023-04-25T13:55:26;5.30;;;3.07;;
3647;SDS011;1840;48.892;15.312;2023-04-25T13:57:55;7.23;;;6.37;;
3647;SDS011;1840;48.892;15.312;2023-04-25T14:00:23;5.33;;;3.37;;
3647;SDS011;1840;48.892;15.312;2023-04-25T14:02:51;3.57;;;2.40;;
3647;SDS011;1840;48.892;15.312;2023-04-25T14:05:21;8.97;;;3.30;;
3647;SDS011;1840;48.892;15.312;2023-04-25T14:07:49;3.40;;;2.40;;
3647;SDS011;1840;48.892;15.312;2023-04-25T14:10:17;3.43;;;2.50;;
3647;SDS011;1840;48.892;15.312;2023-04-25T14:12:45;6.00;;;2.63;;
3647;SDS011;1840;48.892;15.312;2023-04-25T14:15:13;3.57;;;2.80;;
3647;SDS011;1840;48.892;15.312;2023-04-25T14:17:41;4.43;;;2.67;;
3647;SDS011;1840;48.892;15.312;2023-04-25T14:20:12;3.20;;;2.80;;
3647;SDS011;1840;48.892;15.312;2023-04-25T14:22:41;3.80;;;2.60;;
3647;SDS011;1840;48.892;15.312;2023-04-25T14:25:10;7.63;;;3.40;;
3647;SDS011;1840;48.892;15.312;2023-04-25T14:27:38;4.73;;;2.90;;
3647;SDS011;1840;48.892;15.312;2023-04-25T14:30:06;6.03;;;2.40;;
3647;SDS011;1840;48.892;15.312;2023-04-25T14:32:36;4.33;;;2.80;;
3647;SDS011;1840;48.892;15.312;2023-04-25T14:35:04;5.40;;;3.00;;
3647;SDS011;1840;48.892;15.312;2023-04-25T14:37:33;3.20;;;2.43;;
3647;SDS011;1840;48.892;15.312;2023-04-25T14:40:03;4.13;;;2.60;;
3647;SDS011;1840;48.892;15.312;2023-04-25T14:42:33;4.17;;;2.67;;
3647;SDS011;1840;48.892;15.312;2023-04-25T14:45:02;4.93;;;2.77;;
3647;SDS011;1840;48.892;15.312;2023-04-25T14:47:30;3.17;;;2.17;;
3647;SDS011;1840;48.892;15.312;2023-04-25T14:49:58;6.23;;;2.57;;
3647;SDS011;1840;48.892;15.312;2023-04-25T14:52:28;3.60;;;2.33;;
3647;SDS011;1840;48.892;15.312;2023-04-25T14:54:56;3.10;;;2.40;;
3647;SDS011;1840;48.892;15.312;2023-04-25T14:57:27;4.40;;;2.17;;
3647;SDS011;1840;48.892;15.312;2023-04-25T14:59:55;3.97;;;2.63;;
3647;SDS011;1840;48.892;15.312;2023-04-25T15:02:24;4.37;;;3.50;;
3647;SDS011;1840;48.892;15.312;2023-04-25T15:04:53;13.90;;;8.60;;
3647;SDS011;1840;48.892;15.312;2023-04-25T15:07:22;3.20;;;2.03;;
3647;SDS011;1840;48.892;15.312;2023-04-25T15:09:50;3.80;;;2.43;;
3647;SDS011;1840;48.892;15.312;2023-04-25T15:12:22;3.70;;;2.13;;
3647;SDS011;1840;48.892;15.312;2023-04-25T15:14:54;4.67;;;2.70;;
3647;SDS011;1840;48.892;15.312;2023-04-25T15:17:22;3.50;;;2.10;;
3647;SDS011;1840;48.892;15.312;2023-04-25T15:19:50;5.50;;;3.20;;